Relax — ILWX2 — position and weather

sailwx.info

Track history (hours):
 
Tides and Currents Weather Stations Pressure Air Temp Water Temp Dewpoint Dewpoint Depression Visibility Wind Speed Wind Dir Waves Ship Positions

Relax

Last reported at 2016-May-31 15:30 UTC. Time now 2016-Jun-01 03:38 UTC.
Position N 40°37' E 014°29'.

MMSI: 247277800.

Date/timePositionNaut miles runAvg speedWind from/ knotsBaromVisibWave heightAir tempDewpointWater temp
2016-May-31 15:30N 40°37' E 014°29'1112.1
2016-May-31 14:33N 40°34' E 014°15'1 0.3
2016-May-31 12:32N 40°34' E 014°14'0 0.0
2016-May-31 11:32N 40°34' E 014°14'0 0.0
2016-May-31 10:32N 40°34' E 014°14'0 0.0
2016-May-31 09:32N 40°34' E 014°14'7 6.3
2016-May-31 08:29N 40°34' E 014°23'6 0.4
2016-May-30 15:33N 40°37' E 014°30'1111.0
2016-May-30 14:33N 40°34' E 014°16'2 1.3
2016-May-30 13:24N 40°34' E 014°14'0 0.0
2016-May-30 12:31N 40°34' E 014°14'0 0.0
2016-May-30 11:25N 40°34' E 014°14'0 0.0
2016-May-30 10:31N 40°34' E 014°14'0 0.0
2016-May-30 09:33N 40°34' E 014°14'7 6.9
2016-May-30 08:28N 40°35' E 014°24'4 0.2
2016-May-29 15:10N 40°37' E 014°29'1118.3
2016-May-29 14:33N 40°33' E 014°15'0 0.5
2016-May-29 13:31N 40°34' E 014°14'0 0.0
2016-May-29 12:31N 40°34' E 014°14'0 0.1
2016-May-29 11:31N 40°34' E 014°14'0 0.0
2016-May-29 10:31N 40°34' E 014°14'0 0.0
2016-May-29 09:31N 40°34' E 014°14'1 0.1
2016-May-28 14:33N 40°34' E 014°16'1 0.7
2016-May-28 13:17N 40°33' E 014°16'1 0.1
2016-May-28 09:15N 40°33' E 014°16'3 4.9
2016-May-28 08:33N 40°34' E 014°21'6 0.4
2016-May-27 15:10N 40°36' E 014°28'1016.8
2016-May-27 14:34N 40°34' E 014°15'1 0.1
2016-May-27 09:09N 40°34' E 014°16'11 0.6
2016-May-26 15:32N 40°37' E 014°31'1211.9
2016-May-26 14:33N 40°34' E 014°15'1 0.7
2016-May-26 13:25N 40°34' E 014°14'0 0.0
2016-May-26 12:31N 40°34' E 014°14'0 0.0
2016-May-26 11:31N 40°34' E 014°14'0 0.0
2016-May-26 10:32N 40°34' E 014°14'0 0.0
2016-May-26 09:29N 40°34' E 014°14'5 5.6
2016-May-26 08:32N 40°34' E 014°21'6 0.4
2016-May-25 15:13N 40°37' E 014°29'1116.5
2016-May-25 14:33N 40°34' E 014°15'1 0.8
2016-May-25 13:30N 40°34' E 014°14'0 0.0
2016-May-25 12:24N 40°34' E 014°14'0 0.0
2016-May-25 11:30N 40°34' E 014°14'0 0.0
2016-May-25 10:31N 40°34' E 014°14'0 0.0
2016-May-25 09:34N 40°34' E 014°14'1 0.9
2016-May-25 08:33N 40°34' E 014°15'  
2016-May-22 15:14N 40°38' E 014°29'1115.8
2016-May-22 14:33N 40°34' E 014°16'1 0.7
2016-May-22 13:31N 40°33' E 014°16'0 0.0
2016-May-22 12:19N 40°33' E 014°16'0 0.0
2016-May-22 11:22N 40°33' E 014°16'0 0.0
2016-May-22 10:28N 40°33' E 014°16'0 0.0
2016-May-22 09:16N 40°33' E 014°16'  
Track history (hours):
 
Tides and Currents Weather Stations Pressure Air Temp Water Temp Dewpoint Dewpoint Depression Visibility Wind Speed Wind Dir Waves Ship Positions

Relax

Last reported at 2016-May-31 15:30 UTC. Time now 2016-Jun-01 03:38 UTC.
Position N 40°37' E 014°29'.

MMSI: 247277800.

Date/timePositionNaut miles runAvg speedWind from/ knotsBaromVisibWave heightAir tempDewpointWater temp
2016-May-31 15:30N 40°37' E 014°29'1112.1
2016-May-31 14:33N 40°34' E 014°15'1 0.3
2016-May-31 12:32N 40°34' E 014°14'0 0.0
2016-May-31 11:32N 40°34' E 014°14'0 0.0
2016-May-31 10:32N 40°34' E 014°14'0 0.0
2016-May-31 09:32N 40°34' E 014°14'7 6.3
2016-May-31 08:29N 40°34' E 014°23'6 0.4
2016-May-30 15:33N 40°37' E 014°30'1111.0
2016-May-30 14:33N 40°34' E 014°16'2 1.3
2016-May-30 13:24N 40°34' E 014°14'0 0.0
2016-May-30 12:31N 40°34' E 014°14'0 0.0
2016-May-30 11:25N 40°34' E 014°14'0 0.0
2016-May-30 10:31N 40°34' E 014°14'0 0.0
2016-May-30 09:33N 40°34' E 014°14'7 6.9
2016-May-30 08:28N 40°35' E 014°24'4 0.2
2016-May-29 15:10N 40°37' E 014°29'1118.3
2016-May-29 14:33N 40°33' E 014°15'0 0.5
2016-May-29 13:31N 40°34' E 014°14'0 0.0
2016-May-29 12:31N 40°34' E 014°14'0 0.1
2016-May-29 11:31N 40°34' E 014°14'0 0.0
2016-May-29 10:31N 40°34' E 014°14'0 0.0
2016-May-29 09:31N 40°34' E 014°14'1 0.1
2016-May-28 14:33N 40°34' E 014°16'1 0.7
2016-May-28 13:17N 40°33' E 014°16'1 0.1
2016-May-28 09:15N 40°33' E 014°16'3 4.9
2016-May-28 08:33N 40°34' E 014°21'6 0.4
2016-May-27 15:10N 40°36' E 014°28'1016.8
2016-May-27 14:34N 40°34' E 014°15'1 0.1
2016-May-27 09:09N 40°34' E 014°16'11 0.6
2016-May-26 15:32N 40°37' E 014°31'1211.9
2016-May-26 14:33N 40°34' E 014°15'1 0.7
2016-May-26 13:25N 40°34' E 014°14'0 0.0
2016-May-26 12:31N 40°34' E 014°14'0 0.0
2016-May-26 11:31N 40°34' E 014°14'0 0.0
2016-May-26 10:32N 40°34' E 014°14'0 0.0
2016-May-26 09:29N 40°34' E 014°14'5 5.6
2016-May-26 08:32N 40°34' E 014°21'6 0.4
2016-May-25 15:13N 40°37' E 014°29'1116.5
2016-May-25 14:33N 40°34' E 014°15'1 0.8
2016-May-25 13:30N 40°34' E 014°14'0 0.0
2016-May-25 12:24N 40°34' E 014°14'0 0.0
2016-May-25 11:30N 40°34' E 014°14'0 0.0
2016-May-25 10:31N 40°34' E 014°14'0 0.0
2016-May-25 09:34N 40°34' E 014°14'1 0.9
2016-May-25 08:33N 40°34' E 014°15'  
2016-May-22 15:14N 40°38' E 014°29'1115.8
2016-May-22 14:33N 40°34' E 014°16'1 0.7
2016-May-22 13:31N 40°33' E 014°16'0 0.0
2016-May-22 12:19N 40°33' E 014°16'0 0.0
2016-May-22 11:22N 40°33' E 014°16'0 0.0
2016-May-22 10:28N 40°33' E 014°16'0 0.0
2016-May-22 09:16N 40°33' E 014°16'  

Dump ship's entire track history